Flight Number: EUR2189 Duration: 2:30
Departure: Munich Int'l (EDDM) at 08:00 Distance: 850 Nm
Arrival: Istanbul / Ataturk (LTBA) at 10:30 Equipment: B737

Weather Information
Munchen, Germany (EDDM) 48-21N 011-47E Jan 23, 2018 - 04:20 AM EST / 2018.01.23 0920 UTC
Wind: from the W (260 degrees) at 10 MPH (9 KT):0
Visibility: greater than 7 mile(s):0
Sky conditions: mostly cloudy Temperature: 39 F (4 C) Dew Point: 33 F (1 C) Relative Humidity: 80% Pressure (altimeter): 30.30 in. Hg (1026 hPa)
ob: EDDM 230920Z 26009KT 9999 FEW037 BKN050 04/01 Q1026 R88/290095 NOSIG cycle: 9
Sunrise: 06:55 Sunset: 15:54 (UTC)

Istanbul / Ataturk, Turkey (LTBA) 40-58N 028-49E 37M Jan 23, 2018 - 04:20 AM EST / 2018.01.23 0920 UTC
Wind: from the N (350 degrees) at 15 MPH (13 KT):0
Visibility: 3 mile(s):0
Sky conditions: mostly cloudy Weather: light rain showers Temperature: 39 F (4 C) Dew Point: 35 F (2 C) Relative Humidity: 86% Pressure (altimeter): 30.09 in. Hg (1019 hPa)
ob: LTBA 230920Z 35013KT 6000 -SHRA SCT018 BKN035 04/02 Q1019 NOSIG cycle: 9
Sunrise: 05:25 Sunset: 15:07 (UTC)

TAF:2018/01/23 06:03 TAF LTBA 230440Z 2306/2412 35014KT 9999 -SHRA SCT010 BKN022 PROB30 TEMPO 2309/2313 -SHRASN PROB30 2406/2409 -SHSN

Previous Pireps for this route
Date Aircraft Flight time Fuel used Landing rate On time
2013-04-20B73703.0716852-170No
2013-08-20B73702.3213497-96Yes
2014-03-01B73702.3018452-316Yes
2015-01-12B73702.1012545-250Yes
2015-02-13B74702.3748364-578Charter
2015-04-24B74702.0548934-164Charter
2015-05-02B7772.24510030Charter
2015-05-26B7373.30115000Charter
2015-09-14B77702.3831217-366Charter
2017-01-20B73702.121157649Yes
(pireps marked green are flown by you)

Route map